createdAt,value
2023-01-27T00:00:23.524Z,6.97
2023-01-27T00:01:25.743Z,8.43
2023-01-27T00:02:30.443Z,8.70
2023-01-27T00:03:32.990Z,9.23
2023-01-27T00:04:41.156Z,8.32
2023-01-27T00:05:43.173Z,8.23
2023-01-27T00:06:48.216Z,8.98
2023-01-27T00:07:50.596Z,8.80
2023-01-27T00:08:55.303Z,8.20
2023-01-27T00:09:57.344Z,8.10
2023-01-27T00:11:14.833Z,8.82
2023-01-27T00:12:35.195Z,8.68
2023-01-27T00:13:39.896Z,8.95
2023-01-27T00:14:41.931Z,9.70
2023-01-27T00:15:46.713Z,9.23
2023-01-27T00:16:48.739Z,9.57
2023-01-27T00:17:53.341Z,9.15
2023-01-27T00:18:58.221Z,8.55
2023-01-27T00:20:04.136Z,8.38
2023-01-27T00:21:21.745Z,9.15
2023-01-27T00:22:38.926Z,8.82
2023-01-27T00:23:56.085Z,8.82
2023-01-27T00:25:00.733Z,9.00
2023-01-27T00:26:06.575Z,8.50
2023-01-27T00:27:12.814Z,9.25
2023-01-27T00:28:22.971Z,9.35
2023-01-27T00:29:27.721Z,9.52
2023-01-27T00:30:29.851Z,9.40
2023-01-27T00:31:47.050Z,9.50
2023-01-27T00:33:04.315Z,10.13
2023-01-27T00:34:11.944Z,9.20
2023-01-27T00:35:16.937Z,8.43
2023-01-27T00:36:21.769Z,8.65
2023-01-27T00:37:23.773Z,9.82
2023-01-27T00:38:29.147Z,9.38
2023-01-27T00:39:31.154Z,9.45
2023-01-27T00:40:36.008Z,9.10
2023-01-27T00:41:39.221Z,8.25
2023-01-27T00:42:43.898Z,7.85
2023-01-27T00:43:46.363Z,8.35
2023-01-27T00:45:03.302Z,8.82
2023-01-27T00:46:08.242Z,8.77
2023-01-27T00:47:13.026Z,8.18
2023-01-27T00:48:15.343Z,9.35
2023-01-27T00:49:20.220Z,8.00
2023-01-27T00:50:25.043Z,8.70
2023-01-27T00:51:29.800Z,8.43
2023-01-27T00:52:31.811Z,8.30
2023-01-27T00:53:36.525Z,8.00
2023-01-27T00:54:38.529Z,8.77
2023-01-27T00:55:43.163Z,8.70
2023-01-27T00:56:45.219Z,8.48
2023-01-27T00:57:49.957Z,8.23
2023-01-27T00:58:51.955Z,9.52
2023-01-27T00:59:59.535Z,10.05
2023-01-27T01:01:05.241Z,10.15
2023-01-27T01:02:10.022Z,9.48
2023-01-27T01:03:12.135Z,9.13
2023-01-27T01:04:16.854Z,9.88
2023-01-27T01:05:18.874Z,9.77
2023-01-27T01:06:26.610Z,9.63
2023-01-27T01:07:28.842Z,9.27
2023-01-27T01:08:34.275Z,9.05
2023-01-27T01:09:36.288Z,9.35
2023-01-27T01:10:41.566Z,9.82
2023-01-27T01:11:43.669Z,9.73
2023-01-27T01:12:48.596Z,10.00
2023-01-27T01:13:50.626Z,10.43
2023-01-27T01:14:55.344Z,10.10
2023-01-27T01:15:57.583Z,10.10
2023-01-27T01:17:02.205Z,11.23
2023-01-27T01:18:04.855Z,9.95
2023-01-27T01:19:09.611Z,10.43
2023-01-27T01:20:13.017Z,10.95
2023-01-27T01:21:19.070Z,9.82
2023-01-27T01:22:23.870Z,9.63
2023-01-27T01:23:28.593Z,10.30
2023-01-27T01:24:30.653Z,11.82
2023-01-27T01:25:35.464Z,10.15
2023-01-27T01:26:37.620Z,10.35
2023-01-27T01:27:42.815Z,10.15
2023-01-27T01:28:45.719Z,9.90
2023-01-27T01:29:50.297Z,10.30
2023-01-27T01:30:52.410Z,10.27
2023-01-27T01:31:57.042Z,11.07
2023-01-27T01:32:59.165Z,11.32
2023-01-27T01:34:03.775Z,11.60
2023-01-27T01:35:06.406Z,10.65
2023-01-27T01:36:13.718Z,11.45
2023-01-27T01:37:15.694Z,11.18
2023-01-27T01:38:23.211Z,11.43
2023-01-27T01:39:25.220Z,10.55
2023-01-27T01:40:30.458Z,10.63
2023-01-27T01:41:35.211Z,10.43
2023-01-27T01:42:56.228Z,11.98
2023-01-27T01:44:00.931Z,11.32
2023-01-27T01:45:44.582Z,11.30
2023-01-27T01:46:49.444Z,10.95
2023-01-27T01:47:51.458Z,10.88
2023-01-27T01:48:59.458Z,10.40
2023-01-27T01:52:29.250Z,11.30
2023-01-27T01:53:37.458Z,10.82
2023-01-27T01:54:47.091Z,11.70
2023-01-27T01:55:49.442Z,11.60
2023-01-27T01:56:58.695Z,11.35
2023-01-27T01:58:01.060Z,11.50
2023-01-27T01:59:08.887Z,11.52
2023-01-27T02:00:13.256Z,12.02
2023-01-27T02:01:20.217Z,12.00
2023-01-27T02:02:26.403Z,10.68
2023-01-27T02:03:33.203Z,10.88
2023-01-27T02:04:42.175Z,10.10
2023-01-27T02:05:45.564Z,11.20
2023-01-27T02:07:01.629Z,10.43
2023-01-27T02:08:08.490Z,10.23
2023-01-27T02:09:15.920Z,10.50
2023-01-27T02:10:18.174Z,10.98
2023-01-27T02:11:23.093Z,11.10
2023-01-27T02:12:25.091Z,10.63
2023-01-27T02:13:29.936Z,9.82
2023-01-27T02:14:32.194Z,9.32
2023-01-27T02:15:37.860Z,9.38
2023-01-27T02:16:43.656Z,9.60
2023-01-27T02:17:45.833Z,9.32
2023-01-27T02:18:50.681Z,9.38
2023-01-27T02:20:01.646Z,9.77
2023-01-27T02:21:07.709Z,9.52
2023-01-27T02:22:15.067Z,9.85
2023-01-27T02:23:39.768Z,10.38
2023-01-27T02:24:50.246Z,10.43
2023-01-27T02:26:03.721Z,10.10
2023-01-27T02:27:06.134Z,10.57
2023-01-27T02:28:11.689Z,10.38
2023-01-27T02:29:16.010Z,10.50
2023-01-27T02:30:21.754Z,9.25
2023-01-27T02:31:24.670Z,8.95
2023-01-27T02:32:30.295Z,9.30
2023-01-27T02:33:32.367Z,9.25
2023-01-27T02:34:41.155Z,9.70
2023-01-27T02:35:47.517Z,9.82
2023-01-27T02:36:54.383Z,10.52
2023-01-27T02:37:57.842Z,9.77
2023-01-27T02:39:04.733Z,10.75
2023-01-27T02:40:09.566Z,10.05
2023-01-27T02:41:21.442Z,9.10
2023-01-27T02:42:24.177Z,9.82
2023-01-27T02:43:28.878Z,10.35
2023-01-27T02:44:30.948Z,9.45
2023-01-27T02:45:35.904Z,9.05
2023-01-27T02:46:38.111Z,9.45
2023-01-27T02:47:42.852Z,8.98
2023-01-27T02:48:45.148Z,8.88
2023-01-27T02:49:50.027Z,9.13
2023-01-27T02:50:52.257Z,8.68
2023-01-27T02:51:57.192Z,8.70
2023-01-27T02:52:59.176Z,8.70
2023-01-27T02:54:03.835Z,9.32
2023-01-27T02:55:07.397Z,9.60
2023-01-27T02:56:11.995Z,9.35
2023-01-27T02:57:16.619Z,10.07
2023-01-27T02:58:21.286Z,9.93
2023-01-27T02:59:23.606Z,9.40
2023-01-27T03:00:28.334Z,8.95
2023-01-27T03:01:32.832Z,9.55
2023-01-27T03:02:37.664Z,8.75
2023-01-27T03:03:44.429Z,9.05
2023-01-27T03:04:49.288Z,9.50
2023-01-27T03:05:51.811Z,9.52
2023-01-27T03:06:56.859Z,10.18
2023-01-27T03:07:58.874Z,9.77
2023-01-27T03:09:03.484Z,9.20
2023-01-27T03:10:06.998Z,9.73
2023-01-27T03:11:13.199Z,8.98
2023-01-27T03:12:20.775Z,9.20
2023-01-27T03:13:25.728Z,9.32
2023-01-27T03:14:42.782Z,9.45
2023-01-27T03:15:59.884Z,9.70
2023-01-27T03:17:17.183Z,10.27
2023-01-27T03:18:22.913Z,8.70
2023-01-27T03:19:27.002Z,8.93
2023-01-27T03:20:31.964Z,8.80
2023-01-27T03:21:34.143Z,8.38
2023-01-27T03:22:38.850Z,8.73
2023-01-27T03:23:45.913Z,9.48
2023-01-27T03:24:47.943Z,10.05
2023-01-27T03:25:52.816Z,8.13
2023-01-27T03:26:54.806Z,8.65
2023-01-27T03:28:02.929Z,9.02
2023-01-27T03:29:20.209Z,8.50
2023-01-27T03:30:24.852Z,8.20
2023-01-27T03:31:27.112Z,8.40
2023-01-27T03:32:34.403Z,9.32
2023-01-27T03:33:36.628Z,9.63
2023-01-27T03:34:41.271Z,9.70
2023-01-27T03:35:48.728Z,10.07
2023-01-27T03:37:06.112Z,9.75
2023-01-27T03:38:28.057Z,9.93
2023-01-27T03:41:02.962Z,8.88
2023-01-27T03:42:20.061Z,9.30
2023-01-27T03:43:39.795Z,9.95
2023-01-27T03:44:56.883Z,9.95
2023-01-27T03:46:14.077Z,10.25
2023-01-27T03:47:18.678Z,9.40
2023-01-27T03:48:21.125Z,11.85
2023-01-27T03:49:25.875Z,12.15
2023-01-27T03:50:38.180Z,12.68
2023-01-27T03:51:43.061Z,10.57
2023-01-27T03:53:03.225Z,10.65
2023-01-27T03:54:09.912Z,10.07
2023-01-27T03:55:12.188Z,11.00
2023-01-27T03:56:19.511Z,12.63
2023-01-27T03:57:21.655Z,13.20
2023-01-27T03:58:30.697Z,12.95
2023-01-27T03:59:32.918Z,14.60
2023-01-27T04:00:38.183Z,13.63
2023-01-27T04:01:44.420Z,14.10
2023-01-27T04:03:01.569Z,12.02
2023-01-27T04:04:18.739Z,11.57
2023-01-27T04:05:35.832Z,12.85
2023-01-27T04:06:59.174Z,11.35
2023-01-27T04:08:01.165Z,10.30
2023-01-27T04:09:06.496Z,10.57
2023-01-27T04:10:10.180Z,10.63
2023-01-27T04:11:27.324Z,9.75
2023-01-27T04:12:32.501Z,9.82
2023-01-27T04:13:37.458Z,9.73
2023-01-27T04:14:43.980Z,9.68
2023-01-27T04:15:46.058Z,10.05
2023-01-27T04:16:50.949Z,10.43
2023-01-27T04:17:53.086Z,10.00
2023-01-27T04:18:58.105Z,9.10
2023-01-27T04:20:02.892Z,9.95
2023-01-27T04:21:05.427Z,9.43
2023-01-27T04:22:11.199Z,9.68
2023-01-27T04:23:13.528Z,10.13
2023-01-27T04:24:25.300Z,9.45
2023-01-27T04:25:27.567Z,10.45
2023-01-27T04:26:34.714Z,11.15
2023-01-27T04:27:39.504Z,9.88
2023-01-27T04:28:45.021Z,11.25
2023-01-27T04:29:49.959Z,9.90
2023-01-27T04:30:52.065Z,11.00
2023-01-27T04:31:58.082Z,10.52
2023-01-27T04:33:02.680Z,10.15
2023-01-27T04:34:07.486Z,10.73
2023-01-27T04:35:12.704Z,10.30
2023-01-27T04:36:17.630Z,8.75
2023-01-27T04:37:22.356Z,10.82
2023-01-27T04:38:24.542Z,10.82
2023-01-27T04:39:29.576Z,10.38
2023-01-27T04:40:31.795Z,11.10
2023-01-27T04:41:36.534Z,10.27
2023-01-27T04:42:38.546Z,10.90
2023-01-27T04:43:43.205Z,11.00
2023-01-27T04:44:50.414Z,10.90
2023-01-27T04:45:52.459Z,10.82
2023-01-27T04:46:57.263Z,10.80
2023-01-27T04:47:59.257Z,11.18
2023-01-27T04:49:04.190Z,10.38
2023-01-27T04:50:07.094Z,10.60
2023-01-27T04:51:11.750Z,11.32
2023-01-27T04:52:16.354Z,10.23
2023-01-27T04:53:18.441Z,10.73
2023-01-27T04:54:23.041Z,11.98
2023-01-27T04:55:25.242Z,10.02
2023-01-27T04:56:32.927Z,10.50
2023-01-27T04:57:34.938Z,11.65
2023-01-27T04:58:39.752Z,12.05
2023-01-27T04:59:44.424Z,10.45
2023-01-27T05:00:49.109Z,11.75
2023-01-27T05:01:53.895Z,11.13
2023-01-27T05:02:55.925Z,12.07
2023-01-27T05:04:00.988Z,12.40
2023-01-27T05:05:04.810Z,12.18
2023-01-27T05:06:10.141Z,12.68
2023-01-27T05:07:12.261Z,13.10
2023-01-27T05:08:16.957Z,11.55
2023-01-27T05:09:21.750Z,12.25
2023-01-27T05:10:23.754Z,12.20
2023-01-27T05:11:28.707Z,12.68
2023-01-27T05:12:30.875Z,14.05
2023-01-27T05:13:35.850Z,14.00
2023-01-27T05:14:37.962Z,12.70
2023-01-27T05:15:42.834Z,12.50
2023-01-27T05:16:50.466Z,13.27
2023-01-27T05:17:52.983Z,13.75
2023-01-27T05:18:57.833Z,12.60
2023-01-27T05:19:59.870Z,13.30
2023-01-27T05:21:05.380Z,12.75
2023-01-27T05:22:07.733Z,13.32
2023-01-27T05:23:25.088Z,12.25
2023-01-27T05:24:29.806Z,14.10
2023-01-27T05:25:31.974Z,13.10
2023-01-27T05:26:36.869Z,13.60
2023-01-27T05:27:38.910Z,13.70
2023-01-27T05:28:45.021Z,13.90
2023-01-27T05:29:47.034Z,13.95
2023-01-27T05:30:51.740Z,14.30
2023-01-27T05:31:59.219Z,12.45
2023-01-27T05:33:01.313Z,13.80
2023-01-27T05:34:06.032Z,13.55
2023-01-27T05:35:08.769Z,12.23
2023-01-27T05:36:16.405Z,12.48
2023-01-27T05:37:18.534Z,13.15
2023-01-27T05:38:23.151Z,11.75
2023-01-27T05:39:27.939Z,11.95
2023-01-27T05:40:30.334Z,12.43
2023-01-27T05:41:35.127Z,11.80
2023-01-27T05:42:37.237Z,12.35
2023-01-27T05:43:43.605Z,12.10
2023-01-27T05:44:45.786Z,12.13
2023-01-27T05:45:50.637Z,14.27
2023-01-27T05:46:55.320Z,13.88
2023-01-27T05:48:00.023Z,13.43
2023-01-27T05:49:04.407Z,12.50
2023-01-27T05:50:10.478Z,12.65
2023-01-27T05:51:15.055Z,12.50
2023-01-27T05:52:19.945Z,13.25
2023-01-27T05:53:23.084Z,14.93
2023-01-27T05:54:27.953Z,12.63
2023-01-27T05:55:29.998Z,12.75
2023-01-27T05:56:35.223Z,13.50
2023-01-27T05:57:37.221Z,12.43
2023-01-27T05:58:42.364Z,12.50
2023-01-27T05:59:44.366Z,13.68
2023-01-27T06:00:49.526Z,11.65
2023-01-27T06:01:54.202Z,12.40
2023-01-27T06:02:58.831Z,12.73
2023-01-27T06:04:04.034Z,12.13
2023-01-27T06:05:07.014Z,12.55
2023-01-27T06:06:13.138Z,12.73
2023-01-27T06:07:15.279Z,11.77
2023-01-27T06:08:20.270Z,12.38
2023-01-27T06:09:25.099Z,13.25
2023-01-27T06:10:27.132Z,13.70
2023-01-27T06:11:31.830Z,14.25
2023-01-27T06:12:33.953Z,14.35
2023-01-27T06:13:39.104Z,14.13
2023-01-27T06:14:41.232Z,13.50
2023-01-27T06:15:48.075Z,14.20
2023-01-27T06:16:50.150Z,15.20
2023-01-27T06:17:54.952Z,15.20
2023-01-27T06:19:02.604Z,16.77
2023-01-27T06:20:05.989Z,15.60
2023-01-27T06:21:13.383Z,16.08
2023-01-27T06:22:15.607Z,16.85
2023-01-27T06:23:20.721Z,15.93
2023-01-27T06:24:24.248Z,17.05
2023-01-27T06:25:29.040Z,15.73
2023-01-27T06:26:31.128Z,16.92
2023-01-27T06:27:35.979Z,16.02
2023-01-27T06:28:38.897Z,16.92
2023-01-27T06:29:43.685Z,16.27
2023-01-27T06:30:45.828Z,17.08
2023-01-27T06:31:50.762Z,15.85
2023-01-27T06:32:52.819Z,17.38
2023-01-27T06:33:57.501Z,18.25
2023-01-27T06:35:02.149Z,17.20
2023-01-27T06:36:09.392Z,18.45
2023-01-27T06:37:11.542Z,17.20
2023-01-27T06:38:16.939Z,17.42
2023-01-27T06:39:19.104Z,17.70
2023-01-27T06:40:24.113Z,18.83
2023-01-27T06:41:26.223Z,17.17
2023-01-27T06:42:31.083Z,17.60
2023-01-27T06:43:36.471Z,18.85
2023-01-27T06:44:38.548Z,18.52
2023-01-27T06:45:43.843Z,19.05
2023-01-27T06:46:48.891Z,20.05
2023-01-27T06:47:56.186Z,18.35
2023-01-27T06:49:00.796Z,19.98
2023-01-27T06:50:06.059Z,18.50
2023-01-27T06:51:10.820Z,18.10
2023-01-27T06:52:12.915Z,19.13
2023-01-27T06:53:17.617Z,18.52
2023-01-27T06:54:19.694Z,19.10
2023-01-27T06:55:24.410Z,19.83
2023-01-27T06:56:29.042Z,18.60
2023-01-27T06:57:31.262Z,16.92
2023-01-27T06:58:36.053Z,18.50
2023-01-27T06:59:38.464Z,17.65
2023-01-27T07:00:44.739Z,17.67
2023-01-27T07:01:47.192Z,16.92
2023-01-27T07:02:53.880Z,15.95
2023-01-27T07:03:56.058Z,14.95
2023-01-27T07:05:00.773Z,15.70
2023-01-27T07:06:11.162Z,16.13
2023-01-27T07:07:13.409Z,16.40
2023-01-27T07:08:18.072Z,15.57
2023-01-27T07:09:20.095Z,15.63
2023-01-27T07:10:24.982Z,16.10
2023-01-27T07:11:26.996Z,15.68
2023-01-27T07:12:32.428Z,15.63
2023-01-27T07:13:37.106Z,15.27
2023-01-27T07:14:39.522Z,14.55
2023-01-27T07:15:44.676Z,16.92
2023-01-27T07:16:46.852Z,16.05
2023-01-27T07:17:51.630Z,17.58
2023-01-27T07:18:53.629Z,17.75
2023-01-27T07:19:58.353Z,17.95
2023-01-27T07:21:03.141Z,18.33
2023-01-27T07:22:10.862Z,17.80
2023-01-27T07:23:13.371Z,16.88
2023-01-27T07:24:19.167Z,17.85
2023-01-27T07:25:21.343Z,18.45
2023-01-27T07:26:27.246Z,17.52
2023-01-27T07:27:32.496Z,18.85
2023-01-27T07:28:34.464Z,18.15
2023-01-27T07:29:39.670Z,18.38
2023-01-27T07:30:43.630Z,18.60
2023-01-27T07:31:48.860Z,18.80
2023-01-27T07:32:51.014Z,19.25
2023-01-27T07:33:56.780Z,22.88
2023-01-27T07:34:58.892Z,26.70
2023-01-27T07:36:03.950Z,20.85
2023-01-27T07:37:08.655Z,20.08
2023-01-27T07:38:15.219Z,18.80
2023-01-27T07:39:20.083Z,19.27
2023-01-27T07:40:24.878Z,18.13
2023-01-27T07:41:27.032Z,18.58
2023-01-27T07:42:31.625Z,17.38
2023-01-27T07:43:36.923Z,18.33
2023-01-27T07:44:39.043Z,17.83
2023-01-27T07:45:43.815Z,17.85
2023-01-27T07:46:48.608Z,16.60
2023-01-27T07:47:53.189Z,18.23
2023-01-27T07:48:55.238Z,16.35
2023-01-27T07:49:59.893Z,16.23
2023-01-27T07:51:04.938Z,16.38
2023-01-27T07:52:12.492Z,15.60
2023-01-27T07:53:14.807Z,15.88
2023-01-27T07:54:19.703Z,16.50
2023-01-27T07:55:21.759Z,15.82
2023-01-27T07:56:27.144Z,15.18
2023-01-27T07:57:29.191Z,14.38
2023-01-27T07:58:33.764Z,14.52
2023-01-27T07:59:38.487Z,15.23
2023-01-27T08:00:43.163Z,12.27
2023-01-27T08:01:47.179Z,13.90
2023-01-27T08:02:53.448Z,12.80
2023-01-27T08:03:55.521Z,12.98
2023-01-27T08:05:00.150Z,13.07
2023-01-27T08:06:05.675Z,14.63
2023-01-27T08:07:13.360Z,13.82
2023-01-27T08:08:15.363Z,13.10
2023-01-27T08:09:20.334Z,14.00
2023-01-27T08:10:25.624Z,14.85
2023-01-27T08:11:30.460Z,13.85
2023-01-27T08:12:32.491Z,15.38
2023-01-27T08:13:38.332Z,16.48
2023-01-27T08:14:43.019Z,15.65
2023-01-27T08:15:47.926Z,14.75
2023-01-27T08:16:52.533Z,15.32
2023-01-27T08:17:55.508Z,14.00
2023-01-27T08:19:00.122Z,14.05
2023-01-27T08:20:05.799Z,13.65
2023-01-27T08:21:14.035Z,15.07
2023-01-27T08:22:23.897Z,13.60
2023-01-27T08:23:26.113Z,12.65
2023-01-27T08:24:30.748Z,12.75
2023-01-27T08:25:32.818Z,13.50
2023-01-27T08:26:37.568Z,14.18
2023-01-27T08:27:42.304Z,13.13
2023-01-27T08:28:44.538Z,16.15
2023-01-27T08:29:49.217Z,12.77
2023-01-27T08:30:52.075Z,14.10
2023-01-27T08:31:56.734Z,13.52
2023-01-27T08:33:01.360Z,12.30
2023-01-27T08:34:06.115Z,12.68
2023-01-27T08:35:08.823Z,13.35
2023-01-27T08:36:17.021Z,13.15
2023-01-27T08:37:24.261Z,12.55
2023-01-27T08:38:29.028Z,12.48
2023-01-27T08:39:31.373Z,13.27
2023-01-27T08:40:36.145Z,12.38
2023-01-27T08:41:38.686Z,12.70
2023-01-27T08:42:43.390Z,12.07
2023-01-27T08:43:45.515Z,11.30
2023-01-27T08:44:50.247Z,12.35
2023-01-27T08:45:52.627Z,11.60
2023-01-27T08:46:57.571Z,12.18
2023-01-27T08:47:59.731Z,12.52
2023-01-27T08:49:04.443Z,11.55
2023-01-27T08:50:07.509Z,11.50
2023-01-27T08:51:15.263Z,11.73
2023-01-27T08:52:20.094Z,11.15
2023-01-27T08:53:28.550Z,10.45
2023-01-27T08:54:30.806Z,12.05
2023-01-27T08:55:36.248Z,11.65
2023-01-27T08:56:40.978Z,11.38
2023-01-27T08:57:43.116Z,10.93
2023-01-27T08:58:48.840Z,11.00
2023-01-27T08:59:50.805Z,10.85
2023-01-27T09:00:55.527Z,11.57
2023-01-27T09:01:57.512Z,11.10
2023-01-27T09:03:02.459Z,10.82
2023-01-27T09:04:07.293Z,11.10
2023-01-27T09:05:09.400Z,11.48
2023-01-27T09:06:15.842Z,10.95
2023-01-27T09:07:20.810Z,11.38
2023-01-27T09:08:29.170Z,10.05
2023-01-27T09:09:33.827Z,10.68
2023-01-27T09:10:40.659Z,10.88
2023-01-27T09:11:44.294Z,11.75
2023-01-27T09:12:49.316Z,11.18
2023-01-27T09:13:54.059Z,10.55
2023-01-27T09:14:59.318Z,11.52
2023-01-27T09:16:04.139Z,11.95
2023-01-27T09:17:09.220Z,10.90
2023-01-27T09:18:14.286Z,10.48
2023-01-27T09:19:16.337Z,10.50
2023-01-27T09:20:30.952Z,11.20
2023-01-27T09:21:33.093Z,9.82
2023-01-27T09:22:39.887Z,9.65
2023-01-27T09:23:47.174Z,10.25
2023-01-27T09:24:49.252Z,10.13
2023-01-27T09:25:53.945Z,9.25
2023-01-27T09:26:56.112Z,9.27
2023-01-27T09:28:02.321Z,9.82
2023-01-27T09:29:07.041Z,8.93
2023-01-27T09:30:14.000Z,9.38
2023-01-27T09:31:16.419Z,9.10
2023-01-27T09:32:21.085Z,10.43
2023-01-27T09:33:23.111Z,8.82
2023-01-27T09:34:28.078Z,8.52
2023-01-27T09:35:39.774Z,8.98
2023-01-27T09:36:45.814Z,8.48
2023-01-27T09:37:54.546Z,9.35
2023-01-27T09:39:04.539Z,8.70
2023-01-27T09:40:20.778Z,8.65
2023-01-27T09:41:52.591Z,8.63
2023-01-27T09:43:20.929Z,8.63
2023-01-27T09:44:59.717Z,8.68
2023-01-27T09:46:32.765Z,9.57
2023-01-27T09:48:05.495Z,8.35
2023-01-27T09:49:33.214Z,9.07
2023-01-27T09:50:46.352Z,9.13
2023-01-27T09:52:02.687Z,9.32
2023-01-27T09:53:46.972Z,8.73
2023-01-27T09:55:07.488Z,8.27
2023-01-27T09:56:20.524Z,9.20
2023-01-27T09:57:37.883Z,9.70
2023-01-27T09:58:59.505Z,9.57
2023-01-27T10:00:16.546Z,8.38
2023-01-27T10:01:30.559Z,9.45
2023-01-27T10:02:51.323Z,9.95
2023-01-27T10:04:13.270Z,9.32
2023-01-27T10:05:44.909Z,9.10
2023-01-27T10:07:01.330Z,8.40
2023-01-27T10:08:19.407Z,8.20
2023-01-27T10:09:49.682Z,9.57
2023-01-27T10:11:13.951Z,8.25
2023-01-27T10:12:37.552Z,8.68
2023-01-27T10:13:58.920Z,8.98
2023-01-27T10:15:13.437Z,7.78
2023-01-27T10:16:34.645Z,8.43
2023-01-27T10:17:51.577Z,9.65
2023-01-27T10:19:13.281Z,9.25
2023-01-27T10:20:29.663Z,7.65
2023-01-27T10:21:43.392Z,9.43
2023-01-27T10:22:56.980Z,8.18
2023-01-27T10:24:08.926Z,8.15
2023-01-27T10:25:28.397Z,8.82
2023-01-27T10:26:40.732Z,8.43
2023-01-27T10:27:50.959Z,7.72
2023-01-27T10:29:01.306Z,7.68
2023-01-27T10:30:13.611Z,10.00
2023-01-27T10:31:26.878Z,8.07
2023-01-27T10:32:42.759Z,9.18
2023-01-27T10:33:51.832Z,9.98
2023-01-27T10:35:17.043Z,10.65
2023-01-27T10:36:30.231Z,9.45
2023-01-27T10:37:47.083Z,9.98
2023-01-27T10:39:00.698Z,9.75
2023-01-27T10:40:13.843Z,10.93
2023-01-27T10:41:33.047Z,8.95
2023-01-27T10:42:44.653Z,9.65
2023-01-27T10:45:13.070Z,9.07
2023-01-27T10:46:27.148Z,9.98
2023-01-27T10:47:43.126Z,9.70
2023-01-27T10:48:52.841Z,8.82
2023-01-27T10:49:59.801Z,9.30
2023-01-27T10:51:10.573Z,9.40
2023-01-27T10:52:19.433Z,9.48
2023-01-27T10:53:29.573Z,9.35
2023-01-27T10:54:39.303Z,10.05
2023-01-27T10:55:50.017Z,10.73
2023-01-27T10:56:59.814Z,9.83
2023-01-27T10:58:12.133Z,10.48
2023-01-27T10:59:25.167Z,9.52
2023-01-27T11:01:09.081Z,10.70
2023-01-27T11:02:09.124Z,9.57
2023-01-27T11:03:21.649Z,9.73
2023-01-27T11:04:36.130Z,9.60
2023-01-27T11:05:44.303Z,9.73
2023-01-27T11:06:51.948Z,10.02
2023-01-27T11:08:03.155Z,9.75
2023-01-27T11:09:15.669Z,10.25
2023-01-27T11:10:22.552Z,10.35
2023-01-27T11:11:41.056Z,10.63
2023-01-27T11:12:50.710Z,10.57
2023-01-27T11:14:04.686Z,10.75
2023-01-27T11:15:21.757Z,10.43
2023-01-27T11:16:25.699Z,9.85
2023-01-27T11:17:35.361Z,11.25
2023-01-27T11:18:38.927Z,10.30
2023-01-27T11:19:48.596Z,9.07
2023-01-27T11:20:54.603Z,9.80
2023-01-27T11:22:07.748Z,10.48
2023-01-27T11:23:20.378Z,9.32
2023-01-27T11:25:45.845Z,8.93
2023-01-27T11:26:53.815Z,9.70
2023-01-27T11:28:17.932Z,10.20
2023-01-27T11:29:34.907Z,9.10
2023-01-27T11:30:46.000Z,10.63
2023-01-27T11:32:00.161Z,10.00
2023-01-27T11:33:13.256Z,11.65
2023-01-27T11:34:24.598Z,11.13
2023-01-27T11:35:29.753Z,13.25
2023-01-27T11:36:33.425Z,12.18
2023-01-27T11:37:41.284Z,13.18
2023-01-27T11:38:46.527Z,12.20
2023-01-27T11:39:51.548Z,12.55
2023-01-27T11:40:57.113Z,11.35
2023-01-27T11:41:59.721Z,9.00
2023-01-27T11:43:06.612Z,10.00
2023-01-27T11:44:20.131Z,9.63
2023-01-27T11:45:28.437Z,9.93
2023-01-27T11:46:35.225Z,9.40
2023-01-27T11:47:42.722Z,9.55
2023-01-27T11:48:51.771Z,9.48
2023-01-27T11:49:54.579Z,9.98
2023-01-27T11:50:59.209Z,10.50
2023-01-27T11:52:05.964Z,9.80
2023-01-27T11:53:17.729Z,9.55
2023-01-27T11:54:26.399Z,10.63
2023-01-27T11:55:38.562Z,10.55
2023-01-27T11:56:46.578Z,11.15
2023-01-27T11:57:53.068Z,10.95
2023-01-27T11:59:04.423Z,11.38
2023-01-27T12:00:20.046Z,12.05
2023-01-27T12:01:48.314Z,11.35
2023-01-27T12:03:01.296Z,10.38
2023-01-27T12:04:08.311Z,11.23
2023-01-27T12:05:18.289Z,12.85
2023-01-27T12:06:34.776Z,11.85
2023-01-27T12:07:49.970Z,13.55
2023-01-27T12:09:02.378Z,13.55
2023-01-27T12:10:22.887Z,14.07
2023-01-27T12:11:29.574Z,13.48
2023-01-27T12:12:31.540Z,13.90
2023-01-27T12:13:36.782Z,13.57
2023-01-27T12:14:38.814Z,14.52
2023-01-27T12:15:51.312Z,15.20
2023-01-27T12:16:56.969Z,15.10
2023-01-27T12:18:04.195Z,14.48
2023-01-27T12:19:25.234Z,14.50
2023-01-27T12:20:35.716Z,15.17
2023-01-27T12:21:48.972Z,16.15
2023-01-27T12:22:54.264Z,16.70
2023-01-27T12:23:59.595Z,16.02
2023-01-27T12:25:07.896Z,15.23
2023-01-27T12:26:14.329Z,16.77
2023-01-27T12:27:24.816Z,17.35
2023-01-27T12:28:35.061Z,17.45
2023-01-27T12:29:42.158Z,16.88
2023-01-27T12:30:50.300Z,17.25
2023-01-27T12:32:01.267Z,17.88
2023-01-27T12:33:13.170Z,17.75
2023-01-27T12:34:28.128Z,18.02
2023-01-27T12:35:37.249Z,23.70
2023-01-27T12:36:42.400Z,18.40
2023-01-27T12:37:48.067Z,17.30
2023-01-27T12:38:55.522Z,18.52
2023-01-27T12:40:03.930Z,17.13
2023-01-27T12:41:08.374Z,17.63
2023-01-27T12:42:38.844Z,17.73
2023-01-27T12:43:54.916Z,19.42
2023-01-27T12:44:59.345Z,18.13
2023-01-27T12:46:18.571Z,18.58
2023-01-27T12:47:30.605Z,19.40
2023-01-27T12:48:34.423Z,18.27
2023-01-27T12:49:44.679Z,18.38
2023-01-27T12:51:09.072Z,20.13
2023-01-27T12:52:22.520Z,18.92
2023-01-27T12:53:27.851Z,19.55
2023-01-27T12:54:35.687Z,19.13
2023-01-27T12:55:41.581Z,19.23
2023-01-27T12:56:46.511Z,20.52
2023-01-27T12:57:51.200Z,18.65
2023-01-27T12:59:02.515Z,19.25
2023-01-27T13:00:05.884Z,19.35
2023-01-27T13:01:24.599Z,20.13
2023-01-27T13:02:36.292Z,19.63
2023-01-27T13:03:44.949Z,17.55
2023-01-27T13:04:55.216Z,18.80
2023-01-27T13:06:00.107Z,18.17
2023-01-27T13:07:10.522Z,19.42
2023-01-27T13:08:15.827Z,18.45
2023-01-27T13:09:30.518Z,17.70
2023-01-27T13:10:33.215Z,16.80
2023-01-27T13:11:41.673Z,16.95
2023-01-27T13:12:50.110Z,16.92
2023-01-27T13:13:54.734Z,16.98
2023-01-27T13:14:58.491Z,16.90
2023-01-27T13:16:11.382Z,18.50
2023-01-27T13:17:44.579Z,17.58
2023-01-27T13:18:57.069Z,18.00
2023-01-27T13:20:05.589Z,17.45
2023-01-27T13:21:16.352Z,17.10
2023-01-27T13:22:21.713Z,17.60
2023-01-27T13:23:29.592Z,17.70
2023-01-27T13:24:41.333Z,17.92
2023-01-27T13:25:50.008Z,20.23
2023-01-27T13:26:55.311Z,18.95
2023-01-27T13:27:59.875Z,17.40
2023-01-27T13:29:13.613Z,17.92
2023-01-27T13:30:24.068Z,18.63
2023-01-27T13:31:43.438Z,18.92
2023-01-27T13:32:54.548Z,17.20
2023-01-27T13:34:04.395Z,18.45
2023-01-27T13:35:22.849Z,18.20
2023-01-27T13:36:35.107Z,17.23
2023-01-27T13:37:40.868Z,18.80
2023-01-27T13:38:52.281Z,16.90
2023-01-27T13:40:05.141Z,17.88
2023-01-27T13:41:15.875Z,18.92
2023-01-27T13:42:23.805Z,19.45
2023-01-27T13:43:33.976Z,19.35
2023-01-27T13:44:42.212Z,19.77
2023-01-27T13:45:54.659Z,18.60
2023-01-27T13:47:02.147Z,19.30
2023-01-27T13:48:19.263Z,19.10
2023-01-27T13:49:33.666Z,19.13
2023-01-27T13:50:43.334Z,18.85
2023-01-27T13:51:45.693Z,19.13
2023-01-27T13:52:57.600Z,18.48
2023-01-27T13:54:02.183Z,19.13
2023-01-27T13:55:10.913Z,18.35
2023-01-27T13:56:29.624Z,19.00
2023-01-27T13:58:01.756Z,18.55
2023-01-27T13:59:22.989Z,18.38
2023-01-27T14:00:36.828Z,17.40
2023-01-27T14:01:55.441Z,19.73
2023-01-27T14:03:38.825Z,17.42
2023-01-27T14:05:05.029Z,18.52
2023-01-27T14:06:22.746Z,18.55
2023-01-27T14:07:30.618Z,18.85
2023-01-27T14:08:58.724Z,18.35
2023-01-27T14:10:18.788Z,17.85
2023-01-27T14:11:30.335Z,17.60
2023-01-27T14:13:57.357Z,17.08
2023-01-27T14:15:14.275Z,17.35
2023-01-27T14:16:23.834Z,18.00
2023-01-27T14:17:39.736Z,17.95
2023-01-27T14:18:57.380Z,16.80
2023-01-27T14:20:17.836Z,18.00
2023-01-27T14:23:11.476Z,16.13
2023-01-27T14:24:29.142Z,17.10
2023-01-27T14:25:42.490Z,17.05
2023-01-27T14:26:56.765Z,16.80
2023-01-27T14:28:10.154Z,16.73
2023-01-27T14:29:29.810Z,16.75
2023-01-27T14:30:41.699Z,15.70
2023-01-27T14:31:50.137Z,16.40
2023-01-27T14:33:06.879Z,16.65
2023-01-27T14:34:33.844Z,16.25
2023-01-27T14:35:46.783Z,15.80
2023-01-27T14:36:54.398Z,16.20
2023-01-27T14:38:09.739Z,16.42
2023-01-27T14:39:24.699Z,15.57
2023-01-27T14:40:32.272Z,15.90
2023-01-27T14:41:43.905Z,16.92
2023-01-27T14:44:03.200Z,14.77
2023-01-27T14:45:16.736Z,15.52
2023-01-27T14:46:35.907Z,14.25
2023-01-27T14:47:50.487Z,15.07
2023-01-27T14:49:09.218Z,14.27
2023-01-27T14:50:31.332Z,14.27
2023-01-27T14:51:46.175Z,14.35
2023-01-27T14:52:55.505Z,15.00